createdAt,value
2022-12-15T00:00:40.865Z,102412.28
2022-12-15T00:06:02.509Z,102433.56
2022-12-15T00:11:23.950Z,102420.06
2022-12-15T00:16:45.610Z,102439.06
2022-12-15T00:22:07.096Z,102432.81
2022-12-15T00:27:28.753Z,102436.41
2022-12-15T00:32:51.159Z,102424.16
2022-12-15T00:38:12.732Z,102439.47
2022-12-15T00:43:15.749Z,102434.84
2022-12-15T00:48:18.809Z,102443.69
2022-12-15T00:53:41.544Z,102418.91
2022-12-15T00:59:03.051Z,102447.13
2022-12-15T01:04:24.701Z,102436.91
2022-12-15T01:09:46.330Z,102453.06
2022-12-15T01:15:07.816Z,102436.03
2022-12-15T01:20:20.535Z,102441.75
2022-12-15T01:25:25.844Z,102437.09
2022-12-15T01:30:28.893Z,102454.44
2022-12-15T01:35:32.529Z,102440.38
2022-12-15T01:40:47.714Z,102436.56
2022-12-15T01:46:12.056Z,102473.84
2022-12-15T01:51:20.778Z,102472.88
2022-12-15T01:56:26.506Z,102478.56
2022-12-15T02:01:30.183Z,102458.34
2022-12-15T02:06:33.630Z,102485.03
2022-12-15T02:12:01.541Z,102488.03
2022-12-15T02:17:23.261Z,102466.97
2022-12-15T02:22:50.935Z,102481.81
2022-12-15T02:28:02.946Z,102485.25
2022-12-15T02:33:24.506Z,102486.72
2022-12-15T02:38:35.804Z,102475.00
2022-12-15T02:43:39.317Z,102469.72
2022-12-15T02:49:08.813Z,102475.91
2022-12-15T02:54:24.488Z,102485.47
2022-12-15T02:59:45.959Z,102487.22
2022-12-15T03:04:56.742Z,102480.66
2022-12-15T03:10:03.409Z,102469.69
2022-12-15T03:15:07.080Z,102488.88
2022-12-15T03:20:10.857Z,102477.94
2022-12-15T03:25:14.001Z,102473.19
2022-12-15T03:30:17.568Z,102499.31
2022-12-15T03:35:21.078Z,102494.88
2022-12-15T03:40:24.181Z,102503.06
2022-12-15T03:45:28.986Z,102497.56
2022-12-15T03:50:32.025Z,102520.19
2022-12-15T03:55:35.662Z,102499.84
2022-12-15T04:00:39.537Z,102517.53
2022-12-15T04:05:42.606Z,102508.19
2022-12-15T04:10:45.669Z,102527.47
2022-12-15T04:15:48.783Z,102527.41
2022-12-15T04:20:51.828Z,102529.84
2022-12-15T04:26:14.167Z,102523.38
2022-12-15T04:31:39.472Z,102518.44
2022-12-15T04:37:04.647Z,102527.09
2022-12-15T04:42:26.236Z,102548.25
2022-12-15T04:47:48.400Z,102553.81
2022-12-15T04:53:10.359Z,102555.34
2022-12-15T04:58:32.200Z,102541.16
2022-12-15T05:03:53.751Z,102563.53
2022-12-15T05:09:15.329Z,102567.16
2022-12-15T05:14:37.043Z,102547.66
2022-12-15T05:19:58.346Z,102581.94
2022-12-15T05:25:19.824Z,102585.59
2022-12-15T05:30:41.440Z,102584.63
2022-12-15T05:35:45.419Z,102555.03
2022-12-15T05:40:48.511Z,102571.63
2022-12-15T05:45:51.824Z,102595.56
2022-12-15T05:50:55.107Z,102597.53
2022-12-15T05:56:11.865Z,102597.19
2022-12-15T06:01:17.826Z,102595.25
2022-12-15T06:06:21.507Z,102623.59
2022-12-15T06:11:24.667Z,102627.19
2022-12-15T06:16:30.619Z,102615.06
2022-12-15T06:21:36.327Z,102611.50
2022-12-15T06:26:40.639Z,102631.91
2022-12-15T06:31:43.857Z,102626.47
2022-12-15T06:36:47.020Z,102633.31
2022-12-15T06:41:50.014Z,102627.34
2022-12-15T06:46:53.144Z,102633.06
2022-12-15T06:51:56.238Z,102639.19
2022-12-15T06:56:59.205Z,102646.88
2022-12-15T07:02:02.465Z,102627.94
2022-12-15T07:07:05.675Z,102654.31
2022-12-15T07:12:12.034Z,102655.22
2022-12-15T07:17:15.096Z,102642.09
2022-12-15T07:22:18.080Z,102647.59
2022-12-15T07:27:43.223Z,102648.47
2022-12-15T07:32:49.897Z,102627.41
2022-12-15T07:37:53.646Z,102641.72
2022-12-15T07:42:56.749Z,102622.63
2022-12-15T07:47:59.755Z,102636.47
2022-12-15T07:53:03.000Z,102628.81
2022-12-15T07:58:06.049Z,102617.53
2022-12-15T08:03:09.267Z,102638.19
2022-12-15T08:08:15.289Z,102619.31
2022-12-15T08:13:52.559Z,102646.56
2022-12-15T08:18:41.751Z,102633.03
2022-12-15T08:23:45.389Z,102638.84
2022-12-15T08:28:48.455Z,102636.06
2022-12-15T08:33:52.068Z,102624.66
2022-12-15T08:38:57.757Z,102633.94
2022-12-15T08:44:01.937Z,102614.16
2022-12-15T08:49:05.195Z,102625.00
2022-12-15T08:54:09.441Z,102596.34
2022-12-15T08:59:12.553Z,102610.13
2022-12-15T09:04:16.013Z,102575.72
2022-12-15T09:09:19.844Z,102612.91
2022-12-15T09:14:28.882Z,102611.97
2022-12-15T09:19:32.646Z,102595.44
2022-12-15T09:24:35.859Z,102580.91
2022-12-15T09:29:38.924Z,102573.38
2022-12-15T09:34:42.236Z,102581.75
2022-12-15T09:39:45.212Z,102561.38
2022-12-15T09:44:50.785Z,102587.75
2022-12-15T09:49:59.152Z,102589.84
2022-12-15T10:00:45.615Z,102596.47
2022-12-15T10:06:16.069Z,102595.44
2022-12-15T10:11:24.569Z,102588.88
2022-12-15T10:16:51.439Z,102596.22
2022-12-15T10:21:54.531Z,102562.94
2022-12-15T10:27:25.036Z,102569.88
2022-12-15T10:32:51.322Z,102565.72
2022-12-15T10:38:00.319Z,102550.09
2022-12-15T10:43:14.696Z,102558.75
2022-12-15T10:48:20.774Z,102561.25
2022-12-15T10:53:41.759Z,102559.97
2022-12-15T10:58:52.084Z,102551.16
2022-12-15T11:03:57.181Z,102568.41
2022-12-15T11:09:25.725Z,102561.06
2022-12-15T11:14:46.093Z,102569.84
2022-12-15T11:20:02.233Z,102540.34
2022-12-15T11:25:25.380Z,102554.91
2022-12-15T11:30:42.772Z,102545.19
2022-12-15T11:36:41.433Z,102565.06
2022-12-15T11:41:56.052Z,102576.31
2022-12-15T11:47:27.964Z,102576.16
2022-12-15T11:52:56.094Z,102576.22
2022-12-15T11:58:10.881Z,102593.22
2022-12-15T12:03:38.991Z,102590.28
2022-12-15T12:09:08.689Z,102582.84
2022-12-15T12:19:58.190Z,102522.00
2022-12-15T12:25:22.217Z,102540.25
2022-12-15T12:30:29.642Z,102570.84
2022-12-15T12:35:41.642Z,102559.38
2022-12-15T12:46:36.586Z,102533.28
2022-12-15T12:52:05.480Z,102534.25
2022-12-15T13:02:31.331Z,102558.75
2022-12-15T13:07:42.111Z,102561.06
2022-12-15T13:12:54.191Z,102562.28
2022-12-15T13:18:06.812Z,102554.81
2022-12-15T13:23:21.901Z,102556.84
2022-12-15T13:28:38.540Z,102565.13
2022-12-15T13:33:50.731Z,102563.59
2022-12-15T13:38:56.683Z,102535.63
2022-12-15T13:44:01.565Z,102566.38
2022-12-15T13:49:37.779Z,102574.25
2022-12-15T13:54:48.465Z,102588.41
2022-12-15T14:00:05.592Z,102574.19
2022-12-15T14:05:19.275Z,102587.50
2022-12-15T14:10:30.336Z,102596.50
2022-12-15T14:15:35.722Z,102595.41
2022-12-15T14:20:43.115Z,102590.94
2022-12-15T14:26:16.597Z,102573.19
2022-12-15T14:31:24.907Z,102564.50
2022-12-15T14:36:28.972Z,102565.47
2022-12-15T14:41:44.117Z,102562.31
2022-12-15T14:46:52.102Z,102561.56
2022-12-15T14:52:02.279Z,102539.34
2022-12-15T14:57:28.738Z,102519.47
2022-12-15T15:02:31.993Z,102487.91
2022-12-15T15:07:46.341Z,102534.41
2022-12-15T15:12:49.869Z,102517.31
2022-12-15T15:17:59.329Z,102539.72
2022-12-15T15:23:08.090Z,102534.09
2022-12-15T15:28:20.283Z,102536.63
2022-12-15T15:33:23.986Z,102525.41
2022-12-15T15:38:33.931Z,102513.91
2022-12-15T15:43:37.371Z,102492.94
2022-12-15T15:48:54.300Z,102506.47
2022-12-15T15:54:01.460Z,102513.44
2022-12-15T15:59:12.438Z,102510.97
2022-12-15T16:04:15.661Z,102511.59
2022-12-15T16:09:18.772Z,102534.75
2022-12-15T16:14:21.910Z,102547.56
2022-12-15T16:19:27.992Z,102547.78
2022-12-15T16:24:31.110Z,102533.59
2022-12-15T16:29:34.337Z,102546.59
2022-12-15T16:34:37.397Z,102560.31
2022-12-15T16:39:40.604Z,102534.03
2022-12-15T16:44:43.791Z,102545.47
2022-12-15T16:49:47.052Z,102521.84
2022-12-15T16:54:51.025Z,102549.84
2022-12-15T16:59:54.128Z,102551.88
2022-12-15T17:04:57.193Z,102540.06
2022-12-15T17:10:00.239Z,102576.34
2022-12-15T17:15:09.281Z,102556.19
2022-12-15T17:20:30.532Z,102548.19
2022-12-15T17:31:06.176Z,102524.34
2022-12-15T17:36:29.463Z,102541.09
2022-12-15T17:41:58.660Z,102541.31
2022-12-15T17:46:55.618Z,102521.88
2022-12-15T17:52:02.743Z,102517.28
2022-12-15T17:57:05.793Z,102540.88
2022-12-15T18:02:13.442Z,102532.19
2022-12-15T18:07:19.886Z,102506.66
2022-12-15T18:12:26.467Z,102506.75
2022-12-15T18:17:29.572Z,102497.53
2022-12-15T18:22:32.603Z,102514.19
2022-12-15T18:27:35.630Z,102489.75
2022-12-15T18:32:42.319Z,102502.41
2022-12-15T18:37:45.721Z,102512.41
2022-12-15T18:42:49.363Z,102511.88
2022-12-15T18:47:54.357Z,102504.72
2022-12-15T18:53:05.447Z,102473.56
2022-12-15T18:58:28.985Z,102493.41
2022-12-15T19:03:33.200Z,102470.72
2022-12-15T19:08:38.911Z,102478.16
2022-12-15T19:13:41.945Z,102464.47
2022-12-15T19:19:04.179Z,102486.47
2022-12-15T19:24:11.228Z,102485.06
2022-12-15T19:29:22.952Z,102465.75
2022-12-15T19:34:25.965Z,102465.56
2022-12-15T19:39:30.510Z,102486.16
2022-12-15T19:44:33.453Z,102477.75
2022-12-15T19:49:36.486Z,102463.31
2022-12-15T19:54:40.082Z,102461.53
2022-12-15T19:59:43.157Z,102443.03
2022-12-15T20:04:47.632Z,102456.97
2022-12-15T20:09:50.678Z,102454.75
2022-12-15T20:20:14.423Z,102423.22
2022-12-15T20:25:20.350Z,102405.63
2022-12-15T20:30:30.216Z,102414.47
2022-12-15T20:35:35.864Z,102411.84
2022-12-15T20:40:38.910Z,102391.47
2022-12-15T20:45:42.118Z,102362.88
2022-12-15T20:56:05.077Z,102398.69
2022-12-15T21:01:24.572Z,102401.22
2022-12-15T21:06:28.999Z,102421.13
2022-12-15T21:11:33.387Z,102394.66
2022-12-15T21:16:36.435Z,102403.66
2022-12-15T21:21:43.967Z,102390.81
2022-12-15T21:26:47.411Z,102417.66
2022-12-15T21:31:51.114Z,102390.19
2022-12-15T21:36:55.052Z,102398.13
2022-12-15T21:42:00.574Z,102409.19
2022-12-15T21:47:48.261Z,102401.16
2022-12-15T21:52:51.577Z,102396.56
2022-12-15T21:57:57.892Z,102390.69
2022-12-15T22:03:01.209Z,102392.34
2022-12-15T22:08:16.367Z,102353.75
2022-12-15T22:13:21.562Z,102358.69
2022-12-15T22:18:24.553Z,102364.69
2022-12-15T22:23:27.592Z,102351.66
2022-12-15T22:28:30.826Z,102355.28
2022-12-15T22:33:39.713Z,102362.66
2022-12-15T22:38:48.794Z,102351.03
2022-12-15T22:43:54.911Z,102321.50
2022-12-15T22:48:58.017Z,102344.38
2022-12-15T22:54:01.818Z,102331.50
2022-12-15T22:59:10.750Z,102347.78
2022-12-15T23:09:32.396Z,102326.31
2022-12-15T23:14:53.621Z,102343.03
2022-12-15T23:19:57.947Z,102329.97
2022-12-15T23:25:00.904Z,102357.28
2022-12-15T23:30:04.694Z,102347.75
2022-12-15T23:35:07.972Z,102353.09
2022-12-15T23:40:11.526Z,102359.22
2022-12-15T23:45:16.339Z,102348.84
2022-12-15T23:50:19.538Z,102333.78
2022-12-15T23:55:22.586Z,102320.19
